Time;durP1;ratioP1;P1;durP2;ratioP2;P2;SDS_P1;SDS_P2;PMS_P1;PMS_P2;Temp;Humidity;BMP_temperature;BMP_pressure;BME280_temperature;BME280_humidity;BME280_pressure;Samples;Min_cycle;Max_cycle;Signal;HPM_P1;HPM_P2
2022/07/05 00:02:02;;;;;;;4.38;1.40;;;26.80;96.70;;;;;;4889995;29;20080;-82
2022/07/05 00:04:30;;;;;;;3.13;1.38;;;26.90;96.70;;;;;;4874253;29;20148;-81
2022/07/05 00:09:45;;;;;;;6.40;1.45;;;26.50;96.70;;;;;;4865124;29;20073;-80
2022/07/05 00:12:14;;;;;;;3.90;1.38;;;26.40;96.70;;;;;;4870242;29;20120;-80
2022/07/05 00:14:44;;;;;;;4.22;1.65;;;26.50;96.70;;;;;;4859206;29;20060;-81
2022/07/05 00:17:13;;;;;;;3.42;1.55;;;26.60;96.70;;;;;;4875383;29;20508;-82
2022/07/05 00:19:41;;;;;;;6.03;1.73;;;26.50;96.70;;;;;;4875291;29;20051;-82
2022/07/05 00:22:09;;;;;;;3.90;1.40;;;26.40;96.70;;;;;;4873578;29;20048;-83
2022/07/05 00:24:37;;;;;;;3.78;1.40;;;26.40;96.70;;;;;;4874268;29;20045;-83
2022/07/05 00:27:05;;;;;;;4.63;1.77;;;26.40;96.70;;;;;;4874001;29;20053;-82
2022/07/05 00:29:33;;;;;;;5.38;1.48;;;26.50;96.70;;;;;;4875262;29;20048;-81
2022/07/05 00:32:03;;;;;;;2.38;1.35;;;26.60;96.70;;;;;;4873887;29;20080;-82
2022/07/05 00:34:31;;;;;;;4.15;1.80;;;26.60;96.70;;;;;;4873210;29;20057;-82
2022/07/05 00:36:59;;;;;;;3.13;1.15;;;26.50;96.70;;;;;;4873623;29;20135;-82
2022/07/05 00:39:28;;;;;;;3.20;1.38;;;26.40;96.70;;;;;;4871045;29;20062;-83
2022/07/05 00:41:57;;;;;;;4.13;1.50;;;26.40;96.70;;;;;;4886542;29;20741;-83
2022/07/05 00:44:31;;;;;;;5.80;1.45;;;26.50;96.70;;;;;;4874936;29;20057;-82
2022/07/05 00:46:59;;;;;;;6.25;1.67;;;26.50;96.70;;;;;;4889367;29;20049;-83
2022/07/05 00:49:29;;;;;;;4.72;1.58;;;26.40;96.70;;;;;;4874221;29;20083;-83
2022/07/05 00:51:59;;;;;;;6.85;1.40;;;26.40;96.70;;;;;;4873606;29;20045;-82
2022/07/05 00:54:48;;;;;;;3.72;1.27;;;26.30;96.70;;;;;;4866500;29;20049;-83
2022/07/05 00:57:18;;;;;;;4.97;1.60;;;26.30;96.70;;;;;;4883319;29;20052;-83
2022/07/05 00:59:46;;;;;;;4.97;1.58;;;26.30;96.70;;;;;;4876592;29;20257;-84
2022/07/05 01:02:14;;;;;;;3.30;1.63;;;26.20;96.70;;;;;;4892037;29;20041;-83
2022/07/05 01:04:50;;;;;;;4.55;1.40;;;26.10;96.70;;;;;;4873242;29;20060;-83
2022/07/05 01:07:20;;;;;;;3.60;1.40;;;26.10;96.70;;;;;;4858093;29;20057;-81
2022/07/05 01:09:48;;;;;;;3.67;1.40;;;26.00;96.70;;;;;;4888346;29;20064;-82
2022/07/05 01:12:17;;;;;;;5.00;1.83;;;26.00;96.70;;;;;;4889059;29;20056;-83
2022/07/05 01:14:47;;;;;;;4.05;1.38;;;26.10;96.70;;;;;;4888878;29;20090;-84
2022/07/05 01:17:16;;;;;;;8.00;1.40;;;25.90;96.70;;;;;;4873193;29;20045;-82
2022/07/05 01:19:45;;;;;;;3.63;1.33;;;25.70;96.70;;;;;;4873246;29;20511;-83
2022/07/05 01:22:17;;;;;;;5.40;1.85;;;25.70;96.70;;;;;;4881841;29;20045;-81
2022/07/05 01:24:49;;;;;;;4.18;1.75;;;25.80;96.70;;;;;;4858185;29;20057;-83
2022/07/05 01:27:19;;;;;;;5.43;2.17;;;25.80;96.70;;;;;;4873252;29;20053;-83
2022/07/05 01:29:47;;;;;;;2.88;1.50;;;25.80;96.70;;;;;;4878680;29;20088;-83
2022/07/05 01:32:17;;;;;;;4.40;1.60;;;25.70;96.70;;;;;;4872731;29;20061;-82
2022/07/05 01:34:47;;;;;;;4.10;1.65;;;25.70;96.70;;;;;;4854616;29;20053;-84
2022/07/05 01:37:16;;;;;;;2.60;1.40;;;25.80;96.70;;;;;;4870270;29;20057;-83
2022/07/05 01:39:45;;;;;;;6.75;1.63;;;25.70;96.70;;;;;;4873871;29;20060;-83
2022/07/05 01:42:14;;;;;;;3.28;1.70;;;25.70;96.70;;;;;;4874097;29;20069;-83
2022/07/05 01:44:46;;;;;;;5.88;1.85;;;25.60;96.70;;;;;;4868185;29;20605;-83
2022/07/05 01:47:16;;;;;;;8.55;2.30;;;25.70;96.70;;;;;;4873157;29;20045;-83
2022/07/05 01:49:47;;;;;;;4.10;2.05;;;25.70;96.70;;;;;;4876409;29;20100;-83
2022/07/05 01:52:19;;;;;;;5.05;2.50;;;25.80;96.70;;;;;;4865967;29;20109;-84
2022/07/05 01:54:48;;;;;;;6.75;2.20;;;25.70;96.70;;;;;;4873780;29;20041;-82
2022/07/05 01:57:19;;;;;;;2.92;1.83;;;25.80;96.70;;;;;;4872980;29;20146;-83
2022/07/05 01:59:47;;;;;;;4.97;1.73;;;25.80;96.70;;;;;;4874002;29;20093;-82
2022/07/05 02:02:16;;;;;;;4.43;1.83;;;25.80;96.70;;;;;;4872916;29;20048;-82
2022/07/05 02:04:48;;;;;;;4.63;1.67;;;25.60;96.70;;;;;;4874030;29;20049;-83
2022/07/05 02:07:17;;;;;;;3.70;1.60;;;25.60;96.70;;;;;;4856583;29;20037;-83
2022/07/05 02:09:46;;;;;;;5.70;1.70;;;25.80;96.70;;;;;;4857847;29;20088;-83
2022/07/05 02:12:18;;;;;;;6.18;1.70;;;25.80;96.70;;;;;;4883928;29;20539;-83
2022/07/05 02:14:46;;;;;;;3.20;1.80;;;25.90;96.70;;;;;;4884934;29;20080;-84
2022/07/05 02:17:18;;;;;;;6.35;1.48;;;25.70;96.70;;;;;;4857472;29;20674;-83
2022/07/05 02:19:52;;;;;;;3.72;1.30;;;25.60;96.70;;;;;;4872524;29;20061;-83
2022/07/05 02:22:21;;;;;;;3.45;1.50;;;25.50;96.70;;;;;;4872433;29;20132;-84
2022/07/05 02:24:49;;;;;;;3.15;1.15;;;25.30;96.70;;;;;;4853332;29;20575;-83
2022/07/05 02:27:26;;;;;;;4.53;1.52;;;25.40;96.70;;;;;;4866055;29;20053;-83
2022/07/05 02:29:55;;;;;;;8.07;2.35;;;25.60;96.70;;;;;;4876248;29;20516;-77
2022/07/05 02:32:33;;;;;;;5.13;1.70;;;25.50;96.70;;;;;;4869461;29;20563;-76
2022/07/05 02:35:03;;;;;;;5.13;1.50;;;25.50;96.70;;;;;;4884843;29;20502;-83
2022/07/05 02:37:33;;;;;;;2.53;1.15;;;25.50;96.70;;;;;;4873069;29;20057;-84
2022/07/05 02:40:08;;;;;;;6.45;1.73;;;25.60;96.70;;;;;;4857305;29;20049;-83
2022/07/05 02:42:41;;;;;;;3.88;1.52;;;25.60;96.70;;;;;;4872540;29;20049;-83
2022/07/05 02:45:13;;;;;;;2.95;1.35;;;25.40;96.70;;;;;;4873628;29;20049;-83
2022/07/05 02:47:43;;;;;;;4.28;1.60;;;25.30;96.70;;;;;;4876284;29;20057;-83
2022/07/05 02:50:12;;;;;;;4.10;1.75;;;25.40;96.70;;;;;;4890085;29;20654;-84
2022/07/05 02:52:45;;;;;;;4.30;1.20;;;25.40;96.70;;;;;;4891249;29;20049;-83
2022/07/05 02:55:15;;;;;;;2.67;1.33;;;25.30;96.70;;;;;;4875314;29;20411;-83
2022/07/05 02:57:47;;;;;;;3.47;1.30;;;25.20;96.70;;;;;;4887362;29;20063;-83
2022/07/05 03:00:18;;;;;;;4.22;1.30;;;25.40;96.70;;;;;;4876881;29;20523;-83
2022/07/05 03:02:48;;;;;;;2.58;1.40;;;25.50;96.70;;;;;;4875696;29;20056;-82
2022/07/05 03:05:17;;;;;;;5.65;1.70;;;25.40;96.70;;;;;;4875256;29;20061;-83
2022/07/05 03:07:54;;;;;;;4.65;1.35;;;25.30;96.70;;;;;;4876507;29;20160;-86
2022/07/05 03:10:25;;;;;;;5.88;1.45;;;25.30;96.70;;;;;;4875512;29;20060;-84
2022/07/05 03:12:56;;;;;;;2.72;1.40;;;25.10;96.70;;;;;;4875851;29;20044;-84
2022/07/05 03:15:26;;;;;;;5.63;1.40;;;25.00;96.70;;;;;;4867984;29;20144;-84
2022/07/05 03:17:54;;;;;;;5.70;1.50;;;25.20;96.70;;;;;;4876773;29;20084;-84
2022/07/05 03:20:25;;;;;;;4.50;1.70;;;25.00;96.70;;;;;;4876086;29;20101;-82
2022/07/05 03:22:53;;;;;;;4.32;1.75;;;25.00;96.70;;;;;;4877076;29;20060;-84
2022/07/05 03:25:28;;;;;;;6.05;1.48;;;25.10;96.70;;;;;;4872922;29;20057;-84
2022/07/05 03:27:59;;;;;;;1.90;1.25;;;25.10;96.70;;;;;;4875490;29;20152;-84
2022/07/05 03:30:27;;;;;;;5.55;1.45;;;25.20;96.70;;;;;;4878598;29;20057;-85
2022/07/05 03:32:57;;;;;;;5.93;1.30;;;25.20;96.70;;;;;;4875809;29;20067;-84
2022/07/05 03:35:28;;;;;;;2.58;1.38;;;25.10;96.70;;;;;;4873143;29;20754;-83
2022/07/05 03:37:57;;;;;;;3.17;1.50;;;25.10;96.70;;;;;;4890447;29;20500;-84
2022/07/05 03:40:26;;;;;;;2.65;1.50;;;24.90;96.70;;;;;;4870869;29;20132;-77
2022/07/05 03:42:55;;;;;;;6.00;1.50;;;25.00;96.70;;;;;;4875803;29;20048;-76
2022/07/05 03:45:25;;;;;;;2.95;1.55;;;25.00;96.70;;;;;;4872156;29;20056;-78
2022/07/05 03:47:58;;;;;;;3.67;1.45;;;25.10;96.70;;;;;;4855390;29;20104;-78
2022/07/05 03:50:49;;;;;;;3.63;1.52;;;25.10;96.70;;;;;;4869595;29;20154;-78
2022/07/05 03:53:18;;;;;;;4.85;1.50;;;25.20;96.70;;;;;;4871857;29;20068;-78
2022/07/05 03:55:47;;;;;;;4.38;1.60;;;25.10;96.70;;;;;;4855236;29;20053;-77
2022/07/05 03:58:15;;;;;;;4.47;1.45;;;24.60;96.70;;;;;;4854898;29;20049;-78
2022/07/05 04:00:47;;;;;;;6.55;1.73;;;24.50;96.70;;;;;;4868124;29;20140;-78
2022/07/05 04:03:20;;;;;;;4.38;1.63;;;24.60;96.70;;;;;;4870312;29;20049;-78
2022/07/05 04:05:51;;;;;;;5.40;1.40;;;24.70;96.70;;;;;;4856570;29;20088;-78
2022/07/05 04:08:22;;;;;;;3.22;1.20;;;24.90;96.70;;;;;;4870122;29;20060;-78
2022/07/05 04:10:50;;;;;;;4.90;1.50;;;25.10;96.70;;;;;;4869164;29;20109;-76
2022/07/05 04:13:21;;;;;;;3.42;1.30;;;25.30;96.70;;;;;;4854822;29;20560;-78
2022/07/05 04:15:55;;;;;;;6.00;1.52;;;25.30;96.70;;;;;;4855917;29;20485;-77
2022/07/05 04:18:26;;;;;;;3.97;1.80;;;25.30;96.70;;;;;;4869549;29;20065;-78
2022/07/05 04:20:57;;;;;;;5.35;1.67;;;25.40;96.70;;;;;;4863915;29;20132;-78
2022/07/05 04:23:26;;;;;;;3.45;1.67;;;25.50;96.70;;;;;;4853860;29;20102;-78
2022/07/05 04:25:55;;;;;;;5.90;1.83;;;25.50;96.70;;;;;;4868841;29;20087;-77
2022/07/05 04:28:30;;;;;;;;;;;25.40;96.70;;;;;;4882423;29;20049;-77
2022/07/05 04:31:02;;;;;;;6.18;1.90;;;25.50;96.70;;;;;;4865009;29;20375;-77
2022/07/05 04:33:36;;;;;;;4.57;1.50;;;25.50;96.70;;;;;;4865667;29;20049;-78
2022/07/05 04:36:05;;;;;;;7.30;2.30;;;25.60;96.70;;;;;;4880094;29;20191;-77
2022/07/05 04:38:34;;;;;;;6.90;2.03;;;25.50;96.70;;;;;;4873237;29;20784;-78
2022/07/05 04:41:04;;;;;;;3.53;1.38;;;25.50;96.70;;;;;;4883589;29;20045;-77
2022/07/05 04:43:34;;;;;;;10.25;1.80;;;25.60;96.70;;;;;;4884647;29;20495;-77
2022/07/05 04:46:08;;;;;;;4.13;1.80;;;25.60;96.70;;;;;;4853820;29;20068;-77
2022/07/05 04:48:36;;;;;;;5.32;1.70;;;25.50;96.70;;;;;;4868479;29;20052;-78
2022/07/05 04:51:07;;;;;;;5.13;1.95;;;25.50;96.70;;;;;;4878706;29;20132;-78
2022/07/05 04:53:36;;;;;;;5.90;2.50;;;25.40;96.70;;;;;;4869317;29;20075;-77
2022/07/05 04:56:05;;;;;;;4.50;1.90;;;25.30;96.70;;;;;;4855987;29;20194;-77
2022/07/05 04:58:33;;;;;;;6.10;2.03;;;25.40;96.70;;;;;;4870612;29;20045;-77
2022/07/05 05:01:01;;;;;;;6.28;2.28;;;25.40;96.70;;;;;;4869013;29;20056;-77
2022/07/05 05:03:31;;;;;;;5.38;2.65;;;25.30;96.70;;;;;;4869828;29;20056;-77
2022/07/05 05:05:59;;;;;;;9.02;3.00;;;25.30;96.70;;;;;;4868365;29;20072;-77
2022/07/05 05:08:28;;;;;;;7.70;3.05;;;25.40;96.70;;;;;;4868381;29;20045;-78
2022/07/05 05:10:56;;;;;;;7.68;3.30;;;25.40;96.70;;;;;;4850899;29;20068;-77
2022/07/05 05:13:24;;;;;;;9.75;5.25;;;25.50;96.70;;;;;;4868615;29;20053;-77
2022/07/05 05:15:52;;;;;;;9.68;5.25;;;25.40;96.70;;;;;;4870132;29;20162;-77
2022/07/05 05:18:24;;;;;;;7.57;4.60;;;25.40;96.70;;;;;;4802900;29;1971664;-78
2022/07/05 05:20:54;;;;;;;6.55;4.40;;;25.40;96.70;;;;;;4870219;29;20397;-78
2022/07/05 05:23:23;;;;;;;8.80;4.85;;;25.50;96.70;;;;;;4854399;29;20056;-77
2022/07/05 05:25:51;;;;;;;10.55;4.90;;;25.50;96.70;;;;;;4869653;29;20045;-77
2022/07/05 05:28:19;;;;;;;7.57;4.05;;;25.50;96.70;;;;;;4854649;29;20061;-77
2022/07/05 05:30:47;;;;;;;8.02;4.28;;;25.60;96.70;;;;;;4868735;29;20124;-77
2022/07/05 05:33:15;;;;;;;11.48;4.53;;;25.60;96.70;;;;;;4869611;29;20125;-77
2022/07/05 05:35:43;;;;;;;7.07;4.60;;;25.70;96.70;;;;;;4853403;29;20527;-76
2022/07/05 05:38:12;;;;;;;6.95;4.07;;;25.70;96.70;;;;;;4869572;29;20049;-76
2022/07/05 05:40:44;;;;;;;5.82;3.70;;;25.70;96.70;;;;;;4883151;29;20057;-76
2022/07/05 05:43:12;;;;;;;8.38;4.00;;;25.80;96.70;;;;;;4868596;29;20057;-76
2022/07/05 05:45:40;;;;;;;6.28;3.17;;;25.80;96.70;;;;;;4869099;29;20706;-76
2022/07/05 05:48:08;;;;;;;5.25;3.03;;;25.90;96.70;;;;;;4868759;29;20132;-76
2022/07/05 05:50:38;;;;;;;6.30;2.70;;;25.90;96.70;;;;;;4871595;29;20041;-76
2022/07/05 05:53:07;;;;;;;6.80;2.75;;;25.90;96.70;;;;;;4868545;29;20045;-76
2022/07/05 05:55:36;;;;;;;5.10;2.40;;;25.90;96.70;;;;;;4870945;29;20132;-76
2022/07/05 05:58:14;;;;;;;10.30;2.83;;;26.00;96.70;;;;;;4871429;29;20097;-82
2022/07/05 06:00:43;;;;;;;11.23;2.63;;;26.00;96.70;;;;;;4859009;29;20060;-82
2022/07/05 06:03:11;;;;;;;7.43;2.60;;;26.00;96.70;;;;;;4872983;29;20076;-80
2022/07/05 06:05:39;;;;;;;8.55;2.58;;;26.00;96.70;;;;;;4871602;29;20063;-81
2022/07/05 06:08:07;;;;;;;5.07;2.42;;;26.20;96.70;;;;;;4872491;29;20037;-80
2022/07/05 06:10:37;;;;;;;9.20;3.00;;;26.20;96.70;;;;;;4871490;29;20564;-82
2022/07/05 06:13:07;;;;;;;4.75;2.90;;;26.20;96.70;;;;;;4872309;29;20049;-83
2022/07/05 06:15:34;;;;;;;8.98;3.15;;;26.30;96.70;;;;;;4871399;29;20617;-82
2022/07/05 06:18:02;;;;;;;6.68;2.92;;;26.40;96.70;;;;;;4874378;29;20061;-78
2022/07/05 06:20:32;;;;;;;7.45;3.58;;;26.50;96.70;;;;;;4872822;29;20041;-76
2022/07/05 06:23:01;;;;;;;8.05;3.53;;;26.60;96.70;;;;;;4872080;29;20049;-79
2022/07/05 06:25:29;;;;;;;9.23;3.67;;;26.70;96.70;;;;;;4857192;29;20500;-77
2022/07/05 06:28:00;;;;;;;6.85;4.13;;;26.80;96.70;;;;;;4873208;29;20075;-78
2022/07/05 06:30:30;;;;;;;13.27;5.65;;;26.90;96.70;;;;;;4872179;29;20060;-78
2022/07/05 06:32:59;;;;;;;12.40;5.65;;;26.90;96.70;;;;;;4871842;29;20101;-77
2022/07/05 06:35:27;;;;;;;14.80;5.10;;;26.90;96.70;;;;;;4872101;29;20057;-77
2022/07/05 06:37:58;;;;;;;14.02;5.75;;;27.00;96.70;;;;;;4886987;29;20567;-77
2022/07/05 06:40:26;;;;;;;12.07;5.20;;;27.10;96.70;;;;;;4856567;29;20048;-76
2022/07/05 06:42:55;;;;;;;14.70;6.30;;;27.20;96.70;;;;;;4870892;29;20045;-76
2022/07/05 06:45:34;;;;;;;15.82;5.93;;;27.20;96.70;;;;;;4869428;29;20064;-76
2022/07/05 06:48:04;;;;;;;12.25;6.43;;;27.20;96.70;;;;;;4872310;29;20056;-80
2022/07/05 06:50:35;;;;;;;13.98;7.22;;;27.20;96.70;;;;;;4875931;29;20097;-84
2022/07/05 06:53:04;;;;;;;16.80;7.15;;;27.20;96.70;;;;;;4891448;29;20811;-86
2022/07/05 06:55:32;;;;;;;14.40;7.20;;;27.20;96.70;;;;;;4867380;29;20128;-84
2022/07/05 06:58:03;;;;;;;13.18;7.30;;;27.20;96.70;;;;;;4891087;29;20120;-85
2022/07/05 07:00:41;;;;;;;13.68;6.38;;;27.20;96.70;;;;;;4872192;29;20137;-86
2022/07/05 07:03:31;;;;;;;12.23;5.28;;;27.20;96.70;;;;;;4883648;29;20056;-84
2022/07/05 07:06:20;;;;;;;13.07;6.25;;;27.30;96.70;;;;;;4876189;29;20055;-85
2022/07/05 07:11:34;;;;;;;9.93;5.00;;;27.20;96.70;;;;;;4888222;29;20082;-85
2022/07/05 07:14:02;;;;;;;8.27;4.70;;;27.30;96.70;;;;;;4875973;29;20553;-83
2022/07/05 07:16:32;;;;;;;8.20;4.97;;;27.30;96.70;;;;;;4875192;29;20276;-83
2022/07/05 07:19:00;;;;;;;8.73;4.30;;;27.40;96.70;;;;;;4876439;29;20160;-84
2022/07/05 07:21:44;;;;;;;7.15;3.20;;;27.40;96.70;;;;;;4888137;29;20072;-83
2022/07/05 07:24:12;;;;;;;9.27;3.80;;;27.50;96.70;;;;;;4875722;29;20535;-83
2022/07/05 07:29:27;;;;;;;6.25;3.25;;;27.40;96.70;;;;;;4873530;29;20046;-84
2022/07/05 07:31:57;;;;;;;5.57;3.53;;;27.50;96.70;;;;;;4852018;29;20655;-84
2022/07/05 07:34:26;;;;;;;5.85;3.40;;;27.50;96.70;;;;;;4860695;29;20049;-84
2022/07/05 07:36:54;;;;;;;4.80;3.22;;;27.50;96.70;;;;;;4876175;29;20567;-84
2022/07/05 07:39:23;;;;;;;10.60;3.70;;;27.50;96.70;;;;;;4875804;29;20413;-83
2022/07/05 07:41:50;;;;;;;5.90;3.30;;;27.60;96.70;;;;;;4875649;29;20416;-85
2022/07/05 07:44:18;;;;;;;7.15;3.70;;;27.50;96.70;;;;;;4876174;29;20057;-85
2022/07/05 07:46:46;;;;;;;8.15;3.40;;;27.60;96.70;;;;;;4877295;29;20647;-83
2022/07/05 07:49:16;;;;;;;6.18;3.50;;;27.70;96.70;;;;;;4875061;29;20052;-82
2022/07/05 07:51:44;;;;;;;7.00;4.10;;;27.70;96.70;;;;;;4890440;29;20041;-84
2022/07/05 07:54:12;;;;;;;6.07;3.47;;;27.80;96.70;;;;;;4875641;29;20059;-83
2022/07/05 07:56:41;;;;;;;6.70;3.42;;;27.80;96.70;;;;;;4875609;29;20048;-84
2022/07/05 07:59:10;;;;;;;5.93;3.00;;;27.90;96.70;;;;;;4876770;29;20132;-84
2022/07/05 08:01:38;;;;;;;6.90;3.03;;;27.90;96.70;;;;;;4868103;29;20049;-83
2022/07/05 08:04:13;;;;;;;6.45;2.45;;;27.80;96.70;;;;;;4871345;29;20148;-83
2022/07/05 08:06:44;;;;;;;7.03;2.83;;;27.80;96.70;;;;;;4878233;29;20053;-85
2022/07/05 08:09:12;;;;;;;6.72;2.60;;;27.90;96.70;;;;;;4878670;29;20515;-84
2022/07/05 08:11:44;;;;;;;5.65;2.28;;;28.00;96.70;;;;;;4875666;29;20080;-85
2022/07/05 08:14:13;;;;;;;4.78;2.20;;;28.10;96.70;;;;;;4860134;29;20106;-85
2022/07/05 08:16:41;;;;;;;5.40;1.90;;;28.10;96.70;;;;;;4859215;29;20053;-84
2022/07/05 08:22:07;;;;;;;6.05;2.15;;;28.20;96.70;;;;;;4876803;29;20587;-85
2022/07/05 08:24:37;;;;;;;4.95;1.80;;;28.30;96.70;;;;;;4876210;29;20076;-85
2022/07/05 08:27:05;;;;;;;9.57;2.75;;;28.40;96.70;;;;;;4875322;29;20051;-84
2022/07/05 08:29:33;;;;;;;5.43;2.42;;;28.40;96.70;;;;;;4876775;29;20378;-84
2022/07/05 08:32:02;;;;;;;5.10;1.80;;;28.30;96.70;;;;;;4867194;29;20068;-84
2022/07/05 08:34:30;;;;;;;7.90;2.03;;;28.50;96.70;;;;;;4874496;29;20427;-85
2022/07/05 08:36:57;;;;;;;5.70;1.92;;;28.60;96.70;;;;;;4869710;29;20049;-85
2022/07/05 08:39:28;;;;;;;7.25;2.67;;;28.70;96.70;;;;;;4875939;29;20044;-84
2022/07/05 08:41:58;;;;;;;10.38;2.20;;;28.80;96.70;;;;;;4887291;29;20057;-85
2022/07/05 08:44:29;;;;;;;5.53;1.98;;;28.90;96.70;;;;;;4871157;29;20495;-85
2022/07/05 08:46:58;;;;;;;5.53;2.00;;;28.90;96.70;;;;;;4858735;29;20060;-85
2022/07/05 08:49:27;;;;;;;4.47;1.95;;;28.90;96.70;;;;;;4859157;29;20075;-84
2022/07/05 08:51:56;;;;;;;5.07;2.10;;;29.00;96.70;;;;;;4874616;29;20052;-85
2022/07/05 08:54:26;;;;;;;5.15;1.90;;;29.10;96.70;;;;;;4889907;29;20052;-85
2022/07/05 08:56:55;;;;;;;4.70;1.88;;;29.10;96.70;;;;;;4878262;29;20049;-86
2022/07/05 08:59:41;;;;;;;7.27;1.97;;;29.10;96.70;;;;;;4876614;29;20053;-84
2022/07/05 09:02:15;;;;;;;11.18;1.90;;;29.20;96.70;;;;;;4873423;29;20405;-86
2022/07/05 09:04:45;;;;;;;5.25;1.55;;;29.30;96.70;;;;;;4874266;29;20049;-85
2022/07/05 09:07:16;;;;;;;4.25;1.67;;;29.30;96.70;;;;;;4888362;29;20053;-84
2022/07/05 09:09:48;;;;;;;5.85;1.65;;;29.30;96.70;;;;;;4874222;29;20144;-84
2022/07/05 09:12:16;;;;;;;5.88;1.92;;;29.50;96.70;;;;;;4875113;29;20136;-83
2022/07/05 09:14:52;;;;;;;6.45;2.00;;;29.60;96.70;;;;;;4874419;29;20059;-83
2022/07/05 09:17:21;;;;;;;3.65;1.67;;;29.70;96.70;;;;;;4873298;29;20060;-83
2022/07/05 09:20:07;;;;;;;3.88;1.55;;;29.70;96.70;;;;;;4874490;29;20052;-84
2022/07/05 09:22:46;;;;;;;4.45;2.13;;;29.80;96.70;;;;;;4872080;29;20041;-82
2022/07/05 09:25:20;;;;;;;4.28;1.60;;;29.90;96.70;;;;;;4888467;29;20053;-85
2022/07/05 09:27:54;;;;;;;8.60;2.70;;;30.00;96.70;;;;;;4854855;29;20774;-84
2022/07/05 09:30:30;;;;;;;4.80;2.10;;;30.10;96.70;;;;;;4857303;29;20056;-84
2022/07/05 09:33:05;;;;;;;4.20;2.00;;;30.10;96.70;;;;;;4870157;29;20060;-84
2022/07/05 09:35:34;;;;;;;6.03;2.22;;;30.10;96.70;;;;;;4873054;29;20049;-84
2022/07/05 09:38:04;;;;;;;3.05;1.60;;;30.10;96.70;;;;;;4872875;29;20048;-84
2022/07/05 09:40:47;;;;;;;5.03;1.90;;;30.20;96.70;;;;;;4872746;29;20143;-85
2022/07/05 09:43:16;;;;;;;6.43;1.80;;;30.20;96.70;;;;;;4872197;29;20041;-84
2022/07/05 09:45:52;;;;;;;5.97;1.70;;;30.20;96.70;;;;;;4872387;29;20527;-85
2022/07/05 09:48:20;;;;;;;3.42;2.08;;;30.40;96.70;;;;;;4874511;29;20068;-84
2022/07/05 09:51:06;;;;;;;5.88;1.80;;;30.50;96.70;;;;;;4863730;29;20072;-85
2022/07/05 09:53:56;;;;;;;6.70;1.95;;;30.60;96.70;;;;;;4874147;29;20053;-85
2022/07/05 09:56:30;;;;;;;3.35;1.58;;;30.60;96.70;;;;;;4878167;29;20045;-85
2022/07/05 09:59:18;;;;;;;3.35;1.50;;;30.70;96.70;;;;;;4880409;29;20063;-85
2022/07/05 10:01:46;;;;;;;6.25;2.13;;;30.70;96.70;;;;;;4877169;29;20049;-83
2022/07/05 10:04:15;;;;;;;2.58;1.58;;;30.80;96.70;;;;;;4875827;29;20555;-83
2022/07/05 10:06:43;;;;;;;6.88;1.70;;;30.80;96.70;;;;;;4891750;29;20048;-84
2022/07/05 10:09:11;;;;;;;4.90;2.03;;;30.90;96.70;;;;;;4875755;29;20041;-83
2022/07/05 10:11:42;;;;;;;4.38;1.50;;;30.90;96.70;;;;;;4875645;29;20109;-83
2022/07/05 10:14:14;;;;;;;2.70;1.67;;;31.00;96.70;;;;;;4877255;29;20064;-85
2022/07/05 10:16:46;;;;;;;8.55;1.73;;;31.20;96.70;;;;;;4876226;29;20080;-86
2022/07/05 10:19:19;;;;;;;3.95;1.50;;;31.30;96.70;;;;;;4876802;29;20567;-84
2022/07/05 10:21:49;;;;;;;4.10;1.48;;;31.30;96.70;;;;;;4876635;29;20140;-86
2022/07/05 10:24:38;;;;;;;6.00;1.65;;;31.40;96.70;;;;;;4887656;29;20052;-85
2022/07/05 10:27:08;;;;;;;3.70;1.60;;;31.30;96.70;;;;;;4877521;29;20045;-89
2022/07/05 10:29:38;;;;;;;3.50;1.42;;;31.40;96.70;;;;;;4877039;29;20550;-84
2022/07/05 10:32:11;;;;;;;6.82;1.85;;;31.40;96.70;;;;;;4876343;29;20101;-83
2022/07/05 10:34:41;;;;;;;3.45;1.67;;;31.60;96.70;;;;;;4878229;29;20045;-87
2022/07/05 10:37:28;;;;;;;3.83;1.90;;;31.70;96.70;;;;;;4877219;29;20527;-89
2022/07/05 10:39:59;;;;;;;4.00;2.00;;;31.70;96.70;;;;;;4877600;29;20143;-87
2022/07/05 10:42:33;;;;;;;4.55;1.90;;;31.80;96.70;;;;;;4877298;29;20518;-87
2022/07/05 10:45:02;;;;;;;7.15;1.92;;;31.90;96.70;;;;;;4880698;29;20056;-87
2022/07/05 10:47:32;;;;;;;6.75;1.60;;;31.90;96.70;;;;;;4876575;29;20045;-83
2022/07/05 10:50:03;;;;;;;2.60;1.30;;;32.00;96.70;;;;;;4888560;29;20089;-86
2022/07/05 10:52:32;;;;;;;3.25;1.35;;;31.90;96.70;;;;;;4868575;29;20614;-86
2022/07/05 10:55:22;;;;;;;3.97;1.30;;;32.00;96.70;;;;;;4877015;29;20534;-85
2022/07/05 10:58:28;;;;;;;3.90;1.48;;;32.20;96.70;;;;;;4876011;29;20535;-85
2022/07/05 11:01:33;;;;;;;4.22;1.30;;;32.30;96.70;;;;;;4885201;29;20045;-87
2022/07/05 11:04:30;;;;;;;3.50;1.50;;;32.20;96.70;;;;;;4891749;29;20053;-86
2022/07/05 11:06:58;;;;;;;3.13;1.15;;;32.10;96.70;;;;;;4873110;29;20136;-83
2022/07/05 11:09:28;;;;;;;3.15;1.27;;;32.10;96.70;;;;;;4875773;29;20506;-88
2022/07/05 11:12:12;;;;;;;4.22;1.60;;;32.30;96.70;;;;;;4860469;29;20060;-85
2022/07/05 11:15:10;;;;;;;5.65;1.33;;;32.40;96.70;;;;;;4874677;29;20397;-83
2022/07/05 11:17:40;;;;;;;4.88;1.30;;;32.30;96.70;;;;;;4872601;29;20058;-84
2022/07/05 11:20:33;;;;;;;5.55;1.48;;;32.50;96.70;;;;;;4878093;29;20040;-84
2022/07/05 11:23:07;;;;;;;4.57;1.50;;;32.50;96.70;;;;;;4868221;29;20049;-87
2022/07/05 11:25:41;;;;;;;3.15;1.45;;;32.70;96.70;;;;;;4886010;29;20048;-87
2022/07/05 11:28:18;;;;;;;2.08;0.90;;;32.80;96.70;;;;;;4860556;29;20052;-86
2022/07/05 11:30:58;;;;;;;4.75;1.30;;;32.90;96.70;;;;;;4877016;29;20053;-86
2022/07/05 11:33:40;;;;;;;7.80;1.92;;;32.80;96.70;;;;;;4860257;29;20113;-86
2022/07/05 11:36:22;;;;;;;6.80;1.80;;;32.70;96.70;;;;;;4875508;29;20056;-85
2022/07/05 11:39:16;;;;;;;4.95;1.70;;;32.60;96.70;;;;;;4874414;29;20065;-85
2022/07/05 11:41:47;;;;;;;2.80;1.20;;;32.70;96.70;;;;;;4866441;29;20068;-87
2022/07/05 11:44:18;;;;;;;3.88;1.65;;;32.70;96.70;;;;;;4891176;29;20044;-86
2022/07/05 11:47:00;;;;;;;5.18;1.40;;;33.00;96.70;;;;;;4881509;29;20053;-86
2022/07/05 11:49:36;;;;;;;3.78;1.60;;;33.00;96.70;;;;;;4868610;29;20048;-86
2022/07/05 11:52:05;;;;;;;5.28;1.60;;;33.20;96.70;;;;;;4875112;29;20053;-86
2022/07/05 11:54:34;;;;;;;2.22;1.17;;;33.20;96.70;;;;;;4876507;29;20045;-87
2022/07/05 11:57:08;;;;;;;3.53;1.35;;;33.10;96.70;;;;;;4874985;29;20045;-87
2022/07/05 11:59:40;;;;;;;2.75;1.48;;;33.10;96.70;;;;;;4869391;29;20072;-85
2022/07/05 12:02:09;;;;;;;2.67;1.42;;;33.20;96.70;;;;;;4875798;29;20072;-87
2022/07/05 12:04:39;;;;;;;8.23;2.17;;;33.20;96.70;;;;;;4871160;29;20077;-86
2022/07/05 12:07:08;;;;;;;5.88;1.92;;;33.20;96.70;;;;;;4874233;29;20114;-86
2022/07/05 12:12:42;;;;;;;3.53;1.52;;;33.30;96.70;;;;;;4874995;29;20140;-84
2022/07/05 12:15:13;;;;;;;5.35;1.30;;;33.10;96.70;;;;;;4874596;29;20072;-85
2022/07/05 12:17:43;;;;;;;3.38;1.80;;;33.10;96.70;;;;;;4871699;29;20049;-84
2022/07/05 12:20:15;;;;;;;6.53;1.35;;;33.10;96.70;;;;;;4874402;29;20064;-85
2022/07/05 12:22:44;;;;;;;4.78;1.60;;;33.20;96.70;;;;;;4874524;29;20064;-83
2022/07/05 12:25:14;;;;;;;5.40;1.20;;;33.40;96.70;;;;;;4874674;29;20041;-83
2022/07/05 12:27:44;;;;;;;4.38;1.58;;;33.40;96.70;;;;;;4876137;29;20087;-86
2022/07/05 12:30:13;;;;;;;4.97;1.90;;;33.50;96.70;;;;;;4884014;29;20076;-85
2022/07/05 12:32:56;;;;;;;4.63;1.35;;;33.50;96.70;;;;;;4854488;29;20058;-85
2022/07/05 12:35:38;;;;;;;3.65;1.60;;;33.40;96.70;;;;;;4839086;29;20619;-85
2022/07/05 12:38:08;;;;;;;3.35;1.55;;;33.40;96.70;;;;;;4838496;29;20053;-85
2022/07/05 12:40:38;;;;;;;1.80;1.50;;;33.70;96.70;;;;;;4854765;29;20056;-85
2022/07/05 12:43:11;;;;;;;3.88;1.52;;;33.70;96.70;;;;;;4838822;29;20049;-85
2022/07/05 12:45:42;;;;;;;4.70;1.92;;;33.90;96.70;;;;;;4854374;29;20525;-84
2022/07/05 12:48:11;;;;;;;3.22;1.45;;;33.70;96.70;;;;;;4839682;29;20060;-85
2022/07/05 12:50:49;;;;;;;5.57;1.65;;;33.70;96.70;;;;;;4856551;29;20072;-84
2022/07/05 12:59:50;;;;;;;6.22;2.10;;;33.70;95.90;;;;;;4856302;29;20059;-83
2022/07/05 13:02:33;;;;;;;4.35;1.88;;;33.70;95.80;;;;;;4838083;29;20131;-84
2022/07/05 13:05:02;;;;;;;3.88;1.90;;;33.80;96.70;;;;;;4838514;29;20113;-85
2022/07/05 13:07:31;;;;;;;4.85;2.13;;;33.70;96.70;;;;;;4838713;29;20546;-86
2022/07/05 13:10:20;;;;;;;4.05;2.20;;;33.80;96.70;;;;;;4866040;29;20060;-85
2022/07/05 13:12:49;;;;;;;5.78;1.67;;;34.00;96.70;;;;;;4872117;29;20053;-84
2022/07/05 13:15:17;;;;;;;5.97;2.00;;;34.00;96.70;;;;;;4873361;29;20157;-84
2022/07/05 13:17:46;;;;;;;7.22;2.25;;;34.10;96.70;;;;;;4888284;29;20091;-87
2022/07/05 13:20:17;;;;;;;6.35;1.95;;;34.00;96.70;;;;;;4872919;29;20041;-84
2022/07/05 13:22:47;;;;;;;5.07;2.08;;;34.20;96.70;;;;;;4872698;29;20087;-84
2022/07/05 13:25:17;;;;;;;6.60;2.08;;;34.20;96.70;;;;;;4874691;29;20544;-84
2022/07/05 13:27:45;;;;;;;5.90;2.00;;;34.30;96.70;;;;;;4887454;29;20044;-84
2022/07/05 13:30:14;;;;;;;11.48;1.75;;;34.40;96.30;;;;;;4872908;29;20049;-84